sensor_id;sensor_type;location;lat;lon;timestamp;pressure;altitude;pressure_sealevel;temperature;humidity
10806;BME280;5455;53.224;6.000;2022-11-15T00:01:15;100851.13;;;7.10;100.00
10806;BME280;5455;53.224;6.000;2022-11-15T00:04:04;100846.47;;;7.10;100.00
10806;BME280;5455;53.224;6.000;2022-11-15T00:06:54;100849.19;;;7.10;100.00
10806;BME280;5455;53.224;6.000;2022-11-15T00:09:40;100854.47;;;7.15;100.00
10806;BME280;5455;53.224;6.000;2022-11-15T00:12:30;100859.56;;;7.26;100.00
10806;BME280;5455;53.224;6.000;2022-11-15T00:15:15;100849.97;;;7.32;100.00
10806;BME280;5455;53.224;6.000;2022-11-15T00:18:00;100848.50;;;7.34;100.00
10806;BME280;5455;53.224;6.000;2022-11-15T00:20:52;100842.34;;;7.37;100.00
10806;BME280;5455;53.224;6.000;2022-11-15T00:23:38;100844.41;;;7.40;100.00
10806;BME280;5455;53.224;6.000;2022-11-15T00:26:31;100844.53;;;7.44;100.00
10806;BME280;5455;53.224;6.000;2022-11-15T00:29:17;100846.25;;;7.48;100.00
10806;BME280;5455;53.224;6.000;2022-11-15T00:32:02;100840.09;;;7.51;100.00
10806;BME280;5455;53.224;6.000;2022-11-15T00:34:47;100840.91;;;7.52;100.00
10806;BME280;5455;53.224;6.000;2022-11-15T00:37:33;100837.34;;;7.51;100.00
10806;BME280;5455;53.224;6.000;2022-11-15T00:40:18;100834.59;;;7.51;100.00
10806;BME280;5455;53.224;6.000;2022-11-15T00:43:04;100837.84;;;7.53;100.00
10806;BME280;5455;53.224;6.000;2022-11-15T00:45:49;100829.59;;;7.53;100.00
10806;BME280;5455;53.224;6.000;2022-11-15T00:48:34;100821.38;;;7.53;100.00
10806;BME280;5455;53.224;6.000;2022-11-15T00:51:20;100817.94;;;7.56;100.00
10806;BME280;5455;53.224;6.000;2022-11-15T00:54:05;100818.75;;;7.57;100.00
10806;BME280;5455;53.224;6.000;2022-11-15T00:56:50;100807.44;;;7.58;100.00
10806;BME280;5455;53.224;6.000;2022-11-15T00:59:36;100800.22;;;7.54;100.00
10806;BME280;5455;53.224;6.000;2022-11-15T01:02:21;100806.03;;;7.52;100.00
10806;BME280;5455;53.224;6.000;2022-11-15T01:05:07;100809.81;;;7.48;100.00
10806;BME280;5455;53.224;6.000;2022-11-15T01:07:55;100811.28;;;7.45;100.00
10806;BME280;5455;53.224;6.000;2022-11-15T01:10:41;100799.84;;;7.43;100.00
10806;BME280;5455;53.224;6.000;2022-11-15T01:13:29;100794.59;;;7.38;100.00
10806;BME280;5455;53.224;6.000;2022-11-15T01:16:17;100791.72;;;7.35;100.00
10806;BME280;5455;53.224;6.000;2022-11-15T01:19:03;100789.28;;;7.33;100.00
10806;BME280;5455;53.224;6.000;2022-11-15T01:21:49;100785.41;;;7.34;100.00
10806;BME280;5455;53.224;6.000;2022-11-15T01:24:35;100783.47;;;7.35;100.00
10806;BME280;5455;53.224;6.000;2022-11-15T01:27:21;100789.41;;;7.37;100.00
10806;BME280;5455;53.224;6.000;2022-11-15T01:30:07;100781.06;;;7.33;100.00
10806;BME280;5455;53.224;6.000;2022-11-15T01:32:53;100776.38;;;7.34;100.00
10806;BME280;5455;53.224;6.000;2022-11-15T01:35:39;100779.00;;;7.30;100.00
10806;BME280;5455;53.224;6.000;2022-11-15T01:38:25;100776.47;;;7.25;100.00
10806;BME280;5455;53.224;6.000;2022-11-15T01:41:23;100778.41;;;7.25;100.00
10806;BME280;5455;53.224;6.000;2022-11-15T01:47:23;100773.81;;;7.16;100.00
10806;BME280;5455;53.224;6.000;2022-11-15T01:50:13;100765.59;;;7.16;100.00
10806;BME280;5455;53.224;6.000;2022-11-15T01:52:59;100769.81;;;7.14;100.00
10806;BME280;5455;53.224;6.000;2022-11-15T01:55:44;100773.69;;;7.13;100.00
10806;BME280;5455;53.224;6.000;2022-11-15T01:58:30;100782.28;;;7.11;100.00
10806;BME280;5455;53.224;6.000;2022-11-15T02:01:15;100793.66;;;7.01;100.00
10806;BME280;5455;53.224;6.000;2022-11-15T02:04:06;100783.75;;;6.88;100.00
10806;BME280;5455;53.224;6.000;2022-11-15T02:06:53;100777.69;;;6.83;100.00
10806;BME280;5455;53.224;6.000;2022-11-15T02:09:39;100769.00;;;6.81;100.00
10806;BME280;5455;53.224;6.000;2022-11-15T02:12:25;100763.53;;;6.81;100.00
10806;BME280;5455;53.224;6.000;2022-11-15T02:15:10;100749.81;;;6.81;100.00
10806;BME280;5455;53.224;6.000;2022-11-15T02:18:17;100753.25;;;6.78;100.00
10806;BME280;5455;53.224;6.000;2022-11-15T02:21:36;100745.03;;;6.78;100.00
10806;BME280;5455;53.224;6.000;2022-11-15T02:24:48;100749.38;;;6.79;100.00
10806;BME280;5455;53.224;6.000;2022-11-15T02:30:51;100747.84;;;6.69;100.00
10806;BME280;5455;53.224;6.000;2022-11-15T02:37:21;100736.38;;;6.67;100.00
10806;BME280;5455;53.224;6.000;2022-11-15T02:40:13;100747.69;;;6.65;100.00
10806;BME280;5455;53.224;6.000;2022-11-15T02:43:13;100739.81;;;6.64;100.00
10806;BME280;5455;53.224;6.000;2022-11-15T02:46:51;100737.41;;;6.62;100.00
10806;BME280;5455;53.224;6.000;2022-11-15T02:49:59;100733.41;;;6.60;100.00
10806;BME280;5455;53.224;6.000;2022-11-15T02:52:48;100731.47;;;6.60;100.00
10806;BME280;5455;53.224;6.000;2022-11-15T02:55:36;100726.00;;;6.60;100.00
10806;BME280;5455;53.224;6.000;2022-11-15T03:07:07;100719.50;;;6.65;100.00
10806;BME280;5455;53.224;6.000;2022-11-15T03:12:50;100701.13;;;6.65;100.00
10806;BME280;5455;53.224;6.000;2022-11-15T03:15:50;100695.97;;;6.64;100.00
10806;BME280;5455;53.224;6.000;2022-11-15T03:18:41;100692.91;;;6.65;100.00
10806;BME280;5455;53.224;6.000;2022-11-15T03:21:28;100693.72;;;6.66;100.00
10806;BME280;5455;53.224;6.000;2022-11-15T03:24:17;100686.41;;;6.70;100.00
10806;BME280;5455;53.224;6.000;2022-11-15T03:27:12;100694.63;;;6.70;100.00
10806;BME280;5455;53.224;6.000;2022-11-15T03:30:05;100692.38;;;6.72;100.00
10806;BME280;5455;53.224;6.000;2022-11-15T03:32:55;100695.69;;;6.78;100.00
10806;BME280;5455;53.224;6.000;2022-11-15T03:35:44;100681.66;;;6.79;100.00
10806;BME280;5455;53.224;6.000;2022-11-15T03:38:30;100690.66;;;6.80;100.00
10806;BME280;5455;53.224;6.000;2022-11-15T03:41:24;100677.47;;;6.82;100.00
10806;BME280;5455;53.224;6.000;2022-11-15T03:44:39;100672.75;;;6.82;100.00
10806;BME280;5455;53.224;6.000;2022-11-15T03:47:34;100668.06;;;6.83;100.00
10806;BME280;5455;53.224;6.000;2022-11-15T03:50:22;100673.69;;;6.86;100.00
10806;BME280;5455;53.224;6.000;2022-11-15T03:53:09;100665.91;;;6.88;100.00
10806;BME280;5455;53.224;6.000;2022-11-15T03:55:55;100664.47;;;6.91;100.00
10806;BME280;5455;53.224;6.000;2022-11-15T03:58:40;100668.09;;;6.95;100.00
10806;BME280;5455;53.224;6.000;2022-11-15T04:01:25;100663.88;;;6.97;100.00
10806;BME280;5455;53.224;6.000;2022-11-15T04:04:11;100659.00;;;7.03;100.00
10806;BME280;5455;53.224;6.000;2022-11-15T04:06:56;100667.31;;;7.06;100.00
10806;BME280;5455;53.224;6.000;2022-11-15T04:09:42;100655.69;;;7.09;100.00
10806;BME280;5455;53.224;6.000;2022-11-15T04:12:45;100658.91;;;7.11;100.00
10806;BME280;5455;53.224;6.000;2022-11-15T04:15:33;100659.00;;;7.15;100.00
10806;BME280;5455;53.224;6.000;2022-11-15T04:18:19;100662.66;;;7.19;100.00
10806;BME280;5455;53.224;6.000;2022-11-15T04:21:04;100662.00;;;7.22;100.00
10806;BME280;5455;53.224;6.000;2022-11-15T04:24:09;100673.53;;;7.28;100.00
10806;BME280;5455;53.224;6.000;2022-11-15T04:27:00;100668.53;;;7.30;100.00
10806;BME280;5455;53.224;6.000;2022-11-15T04:29:45;100670.91;;;7.31;100.00
10806;BME280;5455;53.224;6.000;2022-11-15T04:32:30;100664.31;;;7.32;100.00
10806;BME280;5455;53.224;6.000;2022-11-15T04:35:16;100665.09;;;7.33;100.00
10806;BME280;5455;53.224;6.000;2022-11-15T04:38:03;100664.41;;;7.36;100.00
10806;BME280;5455;53.224;6.000;2022-11-15T04:40:48;100666.00;;;7.37;100.00
10806;BME280;5455;53.224;6.000;2022-11-15T04:43:34;100658.25;;;7.39;100.00
10806;BME280;5455;53.224;6.000;2022-11-15T04:46:20;100659.50;;;7.41;100.00
10806;BME280;5455;53.224;6.000;2022-11-15T04:49:05;100668.19;;;7.43;100.00
10806;BME280;5455;53.224;6.000;2022-11-15T04:51:51;100659.63;;;7.45;100.00
10806;BME280;5455;53.224;6.000;2022-11-15T04:54:36;100653.47;;;7.48;100.00
10806;BME280;5455;53.224;6.000;2022-11-15T04:57:21;100655.16;;;7.52;100.00
10806;BME280;5455;53.224;6.000;2022-11-15T05:00:10;100652.19;;;7.57;100.00
10806;BME280;5455;53.224;6.000;2022-11-15T05:02:56;100653.09;;;7.61;100.00
10806;BME280;5455;53.224;6.000;2022-11-15T05:06:00;100645.66;;;7.62;100.00
10806;BME280;5455;53.224;6.000;2022-11-15T05:08:46;100638.38;;;7.66;100.00
10806;BME280;5455;53.224;6.000;2022-11-15T05:11:31;100643.94;;;7.69;100.00
10806;BME280;5455;53.224;6.000;2022-11-15T05:14:17;100643.25;;;7.72;100.00
10806;BME280;5455;53.224;6.000;2022-11-15T05:17:02;100651.16;;;7.74;100.00
10806;BME280;5455;53.224;6.000;2022-11-15T05:19:47;100645.78;;;7.78;100.00
10806;BME280;5455;53.224;6.000;2022-11-15T05:22:33;100645.09;;;7.81;100.00
10806;BME280;5455;53.224;6.000;2022-11-15T05:25:18;100652.28;;;7.85;100.00
10806;BME280;5455;53.224;6.000;2022-11-15T05:28:03;100649.97;;;7.87;100.00
10806;BME280;5455;53.224;6.000;2022-11-15T05:30:49;100646.53;;;7.90;100.00
10806;BME280;5455;53.224;6.000;2022-11-15T05:33:35;100640.81;;;7.95;100.00
10806;BME280;5455;53.224;6.000;2022-11-15T05:36:27;100646.75;;;7.97;100.00
10806;BME280;5455;53.224;6.000;2022-11-15T05:39:13;100647.56;;;7.98;100.00
10806;BME280;5455;53.224;6.000;2022-11-15T05:42:09;100650.06;;;8.03;100.00
10806;BME280;5455;53.224;6.000;2022-11-15T05:44:56;100638.06;;;8.07;100.00
10806;BME280;5455;53.224;6.000;2022-11-15T05:47:44;100649.22;;;8.14;100.00
10806;BME280;5455;53.224;6.000;2022-11-15T05:50:30;100642.00;;;8.22;100.00
10806;BME280;5455;53.224;6.000;2022-11-15T05:53:18;100650.38;;;8.25;100.00
10806;BME280;5455;53.224;6.000;2022-11-15T05:56:05;100649.00;;;8.32;100.00
10806;BME280;5455;53.224;6.000;2022-11-15T05:58:55;100647.94;;;8.36;100.00
10806;BME280;5455;53.224;6.000;2022-11-15T06:01:44;100640.59;;;8.40;100.00
10806;BME280;5455;53.224;6.000;2022-11-15T06:04:30;100629.72;;;8.44;100.00
10806;BME280;5455;53.224;6.000;2022-11-15T06:07:15;100627.06;;;8.47;100.00
10806;BME280;5455;53.224;6.000;2022-11-15T06:10:01;100648.81;;;8.52;100.00
10806;BME280;5455;53.224;6.000;2022-11-15T06:12:46;100649.69;;;8.56;100.00
10806;BME280;5455;53.224;6.000;2022-11-15T06:15:33;100647.41;;;8.58;100.00
10806;BME280;5455;53.224;6.000;2022-11-15T06:18:19;100649.09;;;8.63;100.00
10806;BME280;5455;53.224;6.000;2022-11-15T06:21:05;100652.75;;;8.67;100.00
10806;BME280;5455;53.224;6.000;2022-11-15T06:23:51;100658.78;;;8.72;100.00
10806;BME280;5455;53.224;6.000;2022-11-15T06:26:36;100647.88;;;8.76;100.00
10806;BME280;5455;53.224;6.000;2022-11-15T06:29:22;100655.06;;;8.80;100.00
10806;BME280;5455;53.224;6.000;2022-11-15T06:32:07;100650.47;;;8.84;100.00
10806;BME280;5455;53.224;6.000;2022-11-15T06:34:53;100667.88;;;8.89;100.00
10806;BME280;5455;53.224;6.000;2022-11-15T06:37:38;100657.41;;;8.94;100.00
10806;BME280;5455;53.224;6.000;2022-11-15T06:40:24;100664.50;;;8.95;100.00
10806;BME280;5455;53.224;6.000;2022-11-15T06:43:09;100661.84;;;8.99;100.00
10806;BME280;5455;53.224;6.000;2022-11-15T06:45:54;100669.03;;;9.03;100.00
10806;BME280;5455;53.224;6.000;2022-11-15T06:48:39;100678.97;;;9.08;100.00
10806;BME280;5455;53.224;6.000;2022-11-15T06:51:25;100671.63;;;9.12;100.00
10806;BME280;5455;53.224;6.000;2022-11-15T06:54:11;100691.06;;;9.19;100.00
10806;BME280;5455;53.224;6.000;2022-11-15T06:56:56;100690.38;;;9.22;100.00
10806;BME280;5455;53.224;6.000;2022-11-15T06:59:41;100688.03;;;9.24;100.00
10806;BME280;5455;53.224;6.000;2022-11-15T07:02:26;100681.47;;;9.28;100.00
10806;BME280;5455;53.224;6.000;2022-11-15T07:05:12;100687.06;;;9.32;100.00
10806;BME280;5455;53.224;6.000;2022-11-15T07:07:59;100684.41;;;9.35;100.00
10806;BME280;5455;53.224;6.000;2022-11-15T07:10:44;100692.75;;;9.39;100.00
10806;BME280;5455;53.224;6.000;2022-11-15T07:13:31;100692.06;;;9.42;100.00
10806;BME280;5455;53.224;6.000;2022-11-15T07:16:20;100692.16;;;9.46;100.00
10806;BME280;5455;53.224;6.000;2022-11-15T07:19:08;100689.03;;;9.47;100.00
10806;BME280;5455;53.224;6.000;2022-11-15T07:21:53;100696.22;;;9.52;100.00
10806;BME280;5455;53.224;6.000;2022-11-15T07:24:39;100700.66;;;9.56;100.00
10806;BME280;5455;53.224;6.000;2022-11-15T07:27:24;100693.63;;;9.59;100.00
10806;BME280;5455;53.224;6.000;2022-11-15T07:30:11;100703.59;;;9.63;100.00
10806;BME280;5455;53.224;6.000;2022-11-15T07:33:00;100704.50;;;9.67;100.00
10806;BME280;5455;53.224;6.000;2022-11-15T07:35:46;100710.84;;;9.71;100.00
10806;BME280;5455;53.224;6.000;2022-11-15T07:38:35;100709.34;;;9.74;100.00
10806;BME280;5455;53.224;6.000;2022-11-15T07:41:27;100707.09;;;9.79;100.00
10806;BME280;5455;53.224;6.000;2022-11-15T07:44:14;100704.09;;;9.84;100.00
10806;BME280;5455;53.224;6.000;2022-11-15T07:46:59;100702.59;;;9.87;100.00
10806;BME280;5455;53.224;6.000;2022-11-15T07:49:44;100702.22;;;9.88;100.00
10806;BME280;5455;53.224;6.000;2022-11-15T07:52:31;100707.00;;;9.91;100.00
10806;BME280;5455;53.224;6.000;2022-11-15T07:55:16;100699.28;;;9.97;100.00
10806;BME280;5455;53.224;6.000;2022-11-15T07:58:07;100701.38;;;10.04;100.00
10806;BME280;5455;53.224;6.000;2022-11-15T08:00:52;100706.63;;;10.09;100.00
10806;BME280;5455;53.224;6.000;2022-11-15T08:03:39;100696.97;;;10.15;100.00
10806;BME280;5455;53.224;6.000;2022-11-15T08:06:24;100706.53;;;10.21;100.00
10806;BME280;5455;53.224;6.000;2022-11-15T08:09:09;100694.00;;;10.23;100.00
10806;BME280;5455;53.224;6.000;2022-11-15T08:11:55;100703.50;;;10.26;100.00
10806;BME280;5455;53.224;6.000;2022-11-15T08:14:40;100703.16;;;10.27;100.00
10806;BME280;5455;53.224;6.000;2022-11-15T08:17:25;100696.03;;;10.26;100.00
10806;BME280;5455;53.224;6.000;2022-11-15T08:20:11;100698.00;;;10.26;100.00
10806;BME280;5455;53.224;6.000;2022-11-15T08:23:00;100690.94;;;10.28;100.00
10806;BME280;5455;53.224;6.000;2022-11-15T08:25:47;100699.69;;;10.30;100.00
10806;BME280;5455;53.224;6.000;2022-11-15T08:28:32;100700.19;;;10.36;100.00
10806;BME280;5455;53.224;6.000;2022-11-15T08:31:18;100703.88;;;10.43;100.00
10806;BME280;5455;53.224;6.000;2022-11-15T08:34:04;100704.03;;;10.50;100.00
10806;BME280;5455;53.224;6.000;2022-11-15T08:36:50;100706.50;;;10.56;100.00
10806;BME280;5455;53.224;6.000;2022-11-15T08:39:35;100704.97;;;10.58;100.00
10806;BME280;5455;53.224;6.000;2022-11-15T08:42:21;100710.56;;;10.62;100.00
10806;BME280;5455;53.224;6.000;2022-11-15T08:45:07;100704.63;;;10.60;100.00
10806;BME280;5455;53.224;6.000;2022-11-15T08:47:53;100696.69;;;10.58;100.00
10806;BME280;5455;53.224;6.000;2022-11-15T08:50:39;100701.41;;;10.58;100.00
10806;BME280;5455;53.224;6.000;2022-11-15T08:53:24;100693.16;;;10.58;100.00
10806;BME280;5455;53.224;6.000;2022-11-15T08:56:11;100691.66;;;10.60;100.00
10806;BME280;5455;53.224;6.000;2022-11-15T08:58:57;100679.88;;;10.63;100.00
10806;BME280;5455;53.224;6.000;2022-11-15T09:01:42;100685.03;;;10.65;100.00
10806;BME280;5455;53.224;6.000;2022-11-15T09:04:28;100679.75;;;10.75;100.00
10806;BME280;5455;53.224;6.000;2022-11-15T09:07:13;100684.22;;;10.83;100.00
10806;BME280;5455;53.224;6.000;2022-11-15T09:09:59;100691.38;;;10.88;100.00
10806;BME280;5455;53.224;6.000;2022-11-15T09:12:45;100682.63;;;10.82;100.00
10806;BME280;5455;53.224;6.000;2022-11-15T09:15:33;100679.13;;;10.85;100.00
10806;BME280;5455;53.224;6.000;2022-11-15T09:18:19;100678.84;;;10.90;100.00
10806;BME280;5455;53.224;6.000;2022-11-15T09:21:07;100685.84;;;10.84;100.00
10806;BME280;5455;53.224;6.000;2022-11-15T09:23:53;100689.00;;;10.86;100.00
10806;BME280;5455;53.224;6.000;2022-11-15T09:26:39;100681.88;;;10.85;100.00
10806;BME280;5455;53.224;6.000;2022-11-15T09:29:24;100690.16;;;10.85;100.00
10806;BME280;5455;53.224;6.000;2022-11-15T09:32:10;100685.44;;;10.86;100.00
10806;BME280;5455;53.224;6.000;2022-11-15T09:34:55;100687.91;;;10.91;100.00
10806;BME280;5455;53.224;6.000;2022-11-15T09:37:41;100677.81;;;10.98;100.00
10806;BME280;5455;53.224;6.000;2022-11-15T09:40:27;100675.47;;;11.00;100.00
10806;BME280;5455;53.224;6.000;2022-11-15T09:46:15;100677.31;;;10.93;100.00
10806;BME280;5455;53.224;6.000;2022-11-15T09:49:03;100669.28;;;10.84;100.00
10806;BME280;5455;53.224;6.000;2022-11-15T09:52:03;100671.72;;;10.89;100.00
10806;BME280;5455;53.224;6.000;2022-11-15T10:03:23;100660.47;;;11.21;100.00
10806;BME280;5455;53.224;6.000;2022-11-15T10:05:54;100668.53;;;11.29;100.00
10806;BME280;5455;53.224;6.000;2022-11-15T10:08:59;100669.91;;;11.42;100.00
10806;BME280;5455;53.224;6.000;2022-11-15T10:11:29;100662.97;;;11.52;100.00
10806;BME280;5455;53.224;6.000;2022-11-15T10:14:24;100669.03;;;11.61;100.00
10806;BME280;5455;53.224;6.000;2022-11-15T10:20:00;100663.88;;;11.82;100.00
10806;BME280;5455;53.224;6.000;2022-11-15T10:22:38;100647.78;;;11.88;100.00
10806;BME280;5455;53.224;6.000;2022-11-15T10:27:35;100650.19;;;11.89;100.00
10806;BME280;5455;53.224;6.000;2022-11-15T10:30:06;100645.13;;;11.95;100.00
10806;BME280;5455;53.224;6.000;2022-11-15T10:32:37;100647.09;;;11.94;100.00
10806;BME280;5455;53.224;6.000;2022-11-15T10:37:50;100640.47;;;12.02;100.00
10806;BME280;5455;53.224;6.000;2022-11-15T10:40:22;100637.34;;;12.04;100.00
10806;BME280;5455;53.224;6.000;2022-11-15T10:45:37;100633.09;;;12.10;100.00
10806;BME280;5455;53.224;6.000;2022-11-15T10:50:43;100631.88;;;12.07;100.00
10806;BME280;5455;53.224;6.000;2022-11-15T10:53:36;100635.06;;;12.09;100.00
10806;BME280;5455;53.224;6.000;2022-11-15T10:56:08;100631.50;;;12.09;100.00
10806;BME280;5455;53.224;6.000;2022-11-15T10:58:41;100631.97;;;12.14;100.00
10806;BME280;5455;53.224;6.000;2022-11-15T11:03:40;100622.50;;;12.15;100.00
10806;BME280;5455;53.224;6.000;2022-11-15T11:06:16;100610.66;;;12.15;100.00
10806;BME280;5455;53.224;6.000;2022-11-15T11:08:57;100617.03;;;12.19;100.00
10806;BME280;5455;53.224;6.000;2022-11-15T11:11:43;100611.13;;;12.21;100.00
10806;BME280;5455;53.224;6.000;2022-11-15T11:14:24;100600.91;;;12.25;100.00
10806;BME280;5455;53.224;6.000;2022-11-15T11:17:09;100605.38;;;12.36;100.00
10806;BME280;5455;53.224;6.000;2022-11-15T11:25:22;100602.38;;;12.48;100.00
10806;BME280;5455;53.224;6.000;2022-11-15T11:28:20;100608.31;;;12.50;100.00
10806;BME280;5455;53.224;6.000;2022-11-15T11:31:24;100607.16;;;12.51;100.00
10806;BME280;5455;53.224;6.000;2022-11-15T11:48:00;100596.63;;;12.31;100.00
10806;BME280;5455;53.224;6.000;2022-11-15T11:50:29;100594.97;;;12.23;100.00
10806;BME280;5455;53.224;6.000;2022-11-15T11:52:59;100596.47;;;12.17;100.00
10806;BME280;5455;53.224;6.000;2022-11-15T11:55:38;100598.00;;;12.14;100.00
10806;BME280;5455;53.224;6.000;2022-11-15T12:00:50;100579.88;;;12.17;100.00
10806;BME280;5455;53.224;6.000;2022-11-15T12:03:35;100577.19;;;12.24;100.00
10806;BME280;5455;53.224;6.000;2022-11-15T12:06:41;100577.66;;;12.29;100.00
10806;BME280;5455;53.224;6.000;2022-11-15T12:09:39;100579.34;;;12.41;100.00
10806;BME280;5455;53.224;6.000;2022-11-15T12:12:15;100569.91;;;12.42;100.00
10806;BME280;5455;53.224;6.000;2022-11-15T12:14:55;100566.72;;;12.40;100.00
10806;BME280;5455;53.224;6.000;2022-11-15T12:17:27;100564.00;;;12.43;100.00
10806;BME280;5455;53.224;6.000;2022-11-15T12:20:02;100554.53;;;12.44;100.00
10806;BME280;5455;53.224;6.000;2022-11-15T12:22:36;100558.47;;;12.43;100.00
10806;BME280;5455;53.224;6.000;2022-11-15T12:25:13;100562.41;;;12.42;100.00
10806;BME280;5455;53.224;6.000;2022-11-15T12:27:46;100572.38;;;12.50;100.00
10806;BME280;5455;53.224;6.000;2022-11-15T12:30:17;100570.03;;;12.52;100.00
10806;BME280;5455;53.224;6.000;2022-11-15T12:32:57;100563.66;;;12.48;100.00
10806;BME280;5455;53.224;6.000;2022-11-15T12:35:36;100568.78;;;12.50;100.00
10806;BME280;5455;53.224;6.000;2022-11-15T12:38:04;100560.66;;;12.64;100.00
10806;BME280;5455;53.224;6.000;2022-11-15T12:41:16;100549.66;;;12.67;100.00
10806;BME280;5455;53.224;6.000;2022-11-15T12:43:45;100555.31;;;12.82;100.00
10806;BME280;5455;53.224;6.000;2022-11-15T12:49:02;100547.81;;;12.82;100.00
10806;BME280;5455;53.224;6.000;2022-11-15T12:59:53;100543.31;;;12.67;100.00
10806;BME280;5455;53.224;6.000;2022-11-15T13:02:35;100545.50;;;12.51;100.00
10806;BME280;5455;53.224;6.000;2022-11-15T13:08:01;100533.53;;;12.40;100.00
10806;BME280;5455;53.224;6.000;2022-11-15T13:10:31;100532.69;;;12.36;100.00
10806;BME280;5455;53.224;6.000;2022-11-15T13:13:04;100527.63;;;12.41;100.00
10806;BME280;5455;53.224;6.000;2022-11-15T13:15:43;100524.41;;;12.36;100.00
10806;BME280;5455;53.224;6.000;2022-11-15T13:18:29;100527.56;;;12.34;100.00
10806;BME280;5455;53.224;6.000;2022-11-15T13:20:57;100526.38;;;12.35;100.00
10806;BME280;5455;53.224;6.000;2022-11-15T13:23:28;100509.34;;;12.30;100.00
10806;BME280;5455;53.224;6.000;2022-11-15T13:26:14;100500.00;;;12.08;100.00
10806;BME280;5455;53.224;6.000;2022-11-15T13:28:46;100496.78;;;12.02;100.00
10806;BME280;5455;53.224;6.000;2022-11-15T13:31:28;100490.41;;;11.95;100.00
10806;BME280;5455;53.224;6.000;2022-11-15T13:33:59;100487.94;;;11.90;100.00
10806;BME280;5455;53.224;6.000;2022-11-15T13:36:32;100487.13;;;11.86;100.00
10806;BME280;5455;53.224;6.000;2022-11-15T13:39:05;100489.47;;;11.84;100.00
10806;BME280;5455;53.224;6.000;2022-11-15T13:41:45;100487.44;;;11.81;100.00
10806;BME280;5455;53.224;6.000;2022-11-15T13:44:26;100487.44;;;11.77;100.00
10806;BME280;5455;53.224;6.000;2022-11-15T13:47:19;100488.94;;;11.75;100.00
10806;BME280;5455;53.224;6.000;2022-11-15T13:49:46;100481.41;;;11.72;100.00
10806;BME280;5455;53.224;6.000;2022-11-15T13:52:14;100480.56;;;11.68;100.00
10806;BME280;5455;53.224;6.000;2022-11-15T13:54:47;100467.19;;;11.70;100.00
10806;BME280;5455;53.224;6.000;2022-11-15T13:57:38;100468.72;;;11.67;100.00
10806;BME280;5455;53.224;6.000;2022-11-15T14:00:43;100453.66;;;11.61;100.00
10806;BME280;5455;53.224;6.000;2022-11-15T14:03:23;100456.34;;;11.57;100.00
10806;BME280;5455;53.224;6.000;2022-11-15T14:06:04;100448.03;;;11.54;100.00
10806;BME280;5455;53.224;6.000;2022-11-15T14:08:34;100438.47;;;11.48;100.00
10806;BME280;5455;53.224;6.000;2022-11-15T14:11:15;100445.19;;;11.47;100.00
10806;BME280;5455;53.224;6.000;2022-11-15T14:19:36;100423.13;;;11.21;100.00
10806;BME280;5455;53.224;6.000;2022-11-15T14:25:17;100436.91;;;11.17;100.00
10806;BME280;5455;53.224;6.000;2022-11-15T14:28:08;100436.47;;;11.15;100.00
10806;BME280;5455;53.224;6.000;2022-11-15T14:30:35;100437.66;;;11.14;100.00
10806;BME280;5455;53.224;6.000;2022-11-15T14:33:19;100432.44;;;11.09;100.00
10806;BME280;5455;53.224;6.000;2022-11-15T14:35:47;100432.78;;;11.04;100.00
10806;BME280;5455;53.224;6.000;2022-11-15T14:38:14;100435.06;;;10.98;100.00
10806;BME280;5455;53.224;6.000;2022-11-15T14:40:42;100437.34;;;10.93;100.00
10806;BME280;5455;53.224;6.000;2022-11-15T14:43:11;100429.38;;;10.88;100.00
10806;BME280;5455;53.224;6.000;2022-11-15T14:45:38;100419.03;;;10.81;100.00
10806;BME280;5455;53.224;6.000;2022-11-15T14:48:05;100416.59;;;10.76;100.00
10806;BME280;5455;53.224;6.000;2022-11-15T14:50:33;100409.00;;;10.70;100.00
10806;BME280;5455;53.224;6.000;2022-11-15T14:53:01;100398.69;;;10.63;100.00
10806;BME280;5455;53.224;6.000;2022-11-15T14:55:30;100404.94;;;10.60;100.00
10806;BME280;5455;53.224;6.000;2022-11-15T14:57:59;100401.31;;;10.56;100.00
10806;BME280;5455;53.224;6.000;2022-11-15T15:00:26;100395.72;;;10.52;100.00
10806;BME280;5455;53.224;6.000;2022-11-15T15:03:01;100388.22;;;10.49;100.00
10806;BME280;5455;53.224;6.000;2022-11-15T15:05:33;100390.16;;;10.49;100.00
10806;BME280;5455;53.224;6.000;2022-11-15T15:08:01;100383.00;;;10.44;100.00
10806;BME280;5455;53.224;6.000;2022-11-15T15:10:32;100384.09;;;10.40;100.00
10806;BME280;5455;53.224;6.000;2022-11-15T15:15:43;100374.69;;;10.41;100.00
10806;BME280;5455;53.224;6.000;2022-11-15T15:18:10;100375.53;;;10.45;100.00
10806;BME280;5455;53.224;6.000;2022-11-15T15:20:39;100374.06;;;10.51;100.00
10806;BME280;5455;53.224;6.000;2022-11-15T15:23:18;100372.94;;;10.56;100.00
10806;BME280;5455;53.224;6.000;2022-11-15T15:25:46;100369.84;;;10.57;100.00
10806;BME280;5455;53.224;6.000;2022-11-15T15:28:15;100367.84;;;10.58;100.00
10806;BME280;5455;53.224;6.000;2022-11-15T15:30:42;100363.13;;;10.58;100.00
10806;BME280;5455;53.224;6.000;2022-11-15T15:33:09;100354.44;;;10.56;100.00
10806;BME280;5455;53.224;6.000;2022-11-15T15:35:36;100350.84;;;10.52;100.00
10806;BME280;5455;53.224;6.000;2022-11-15T15:38:03;100351.03;;;10.40;100.00
10806;BME280;5455;53.224;6.000;2022-11-15T15:40:32;100350.94;;;10.33;100.00
10806;BME280;5455;53.224;6.000;2022-11-15T15:42:59;100346.84;;;10.23;100.00
10806;BME280;5455;53.224;6.000;2022-11-15T15:45:27;100345.56;;;10.17;100.00
10806;BME280;5455;53.224;6.000;2022-11-15T15:47:54;100346.63;;;10.13;100.00
10806;BME280;5455;53.224;6.000;2022-11-15T15:52:50;100335.06;;;10.04;100.00
10806;BME280;5455;53.224;6.000;2022-11-15T15:55:18;100325.97;;;10.00;100.00
10806;BME280;5455;53.224;6.000;2022-11-15T15:57:45;100315.69;;;9.96;100.00
10806;BME280;5455;53.224;6.000;2022-11-15T16:00:13;100321.84;;;9.90;100.00